sensor_id;sensor_type;location;lat;lon;timestamp;P1;durP1;ratioP1;P2;durP2;ratioP2
73893;SDS011;62699;50.534;12.784;2022-10-13T00:02:35;21.38;;;12.48;;
73893;SDS011;62699;50.534;12.784;2022-10-13T00:07:35;19.98;;;12.20;;
73893;SDS011;62699;50.534;12.784;2022-10-13T00:12:36;20.35;;;12.60;;
73893;SDS011;62699;50.534;12.784;2022-10-13T00:17:37;21.73;;;13.23;;
73893;SDS011;62699;50.534;12.784;2022-10-13T00:22:38;20.92;;;12.07;;
73893;SDS011;62699;50.534;12.784;2022-10-13T00:27:38;18.35;;;11.95;;
73893;SDS011;62699;50.534;12.784;2022-10-13T00:32:38;22.67;;;12.63;;
73893;SDS011;62699;50.534;12.784;2022-10-13T00:37:39;17.70;;;11.45;;
73893;SDS011;62699;50.534;12.784;2022-10-13T00:42:40;18.90;;;11.93;;
73893;SDS011;62699;50.534;12.784;2022-10-13T00:47:42;17.30;;;10.82;;
73893;SDS011;62699;50.534;12.784;2022-10-13T00:52:46;17.95;;;10.23;;
73893;SDS011;62699;50.534;12.784;2022-10-13T00:57:59;18.33;;;10.70;;
73893;SDS011;62699;50.534;12.784;2022-10-13T01:03:03;18.38;;;10.07;;
73893;SDS011;62699;50.534;12.784;2022-10-13T01:08:03;16.95;;;10.00;;
73893;SDS011;62699;50.534;12.784;2022-10-13T01:13:10;16.08;;;9.75;;
73893;SDS011;62699;50.534;12.784;2022-10-13T01:39:57;13.85;;;9.63;;
73893;SDS011;62699;50.534;12.784;2022-10-13T01:45:00;15.95;;;9.52;;
73893;SDS011;62699;50.534;12.784;2022-10-13T01:50:02;21.60;;;10.45;;
73893;SDS011;62699;50.534;12.784;2022-10-13T01:55:08;16.75;;;10.10;;
73893;SDS011;62699;50.534;12.784;2022-10-13T02:11:13;17.00;;;10.23;;
73893;SDS011;62699;50.534;12.784;2022-10-13T02:16:20;15.80;;;9.80;;
73893;SDS011;62699;50.534;12.784;2022-10-13T02:21:22;17.92;;;9.88;;
73893;SDS011;62699;50.534;12.784;2022-10-13T02:31:56;16.08;;;10.02;;
73893;SDS011;62699;50.534;12.784;2022-10-13T02:36:57;19.58;;;10.32;;
73893;SDS011;62699;50.534;12.784;2022-10-13T02:41:58;15.45;;;9.70;;
73893;SDS011;62699;50.534;12.784;2022-10-13T02:46:58;17.63;;;9.73;;
73893;SDS011;62699;50.534;12.784;2022-10-13T02:51:59;17.42;;;9.85;;
73893;SDS011;62699;50.534;12.784;2022-10-13T02:57:00;16.35;;;10.57;;
73893;SDS011;62699;50.534;12.784;2022-10-13T03:07:20;17.55;;;10.88;;
73893;SDS011;62699;50.534;12.784;2022-10-13T03:12:30;17.05;;;10.45;;
73893;SDS011;62699;50.534;12.784;2022-10-13T03:17:31;18.23;;;9.50;;
73893;SDS011;62699;50.534;12.784;2022-10-13T03:22:31;17.77;;;9.93;;
73893;SDS011;62699;50.534;12.784;2022-10-13T03:27:33;18.65;;;9.73;;
73893;SDS011;62699;50.534;12.784;2022-10-13T03:32:33;20.08;;;9.60;;
73893;SDS011;62699;50.534;12.784;2022-10-13T03:37:33;19.95;;;9.88;;
73893;SDS011;62699;50.534;12.784;2022-10-13T03:42:34;18.20;;;9.73;;
73893;SDS011;62699;50.534;12.784;2022-10-13T03:47:35;16.40;;;9.60;;
73893;SDS011;62699;50.534;12.784;2022-10-13T03:52:36;15.82;;;9.95;;
73893;SDS011;62699;50.534;12.784;2022-10-13T03:57:37;17.48;;;10.80;;
73893;SDS011;62699;50.534;12.784;2022-10-13T04:02:37;17.13;;;10.60;;
73893;SDS011;62699;50.534;12.784;2022-10-13T04:07:37;14.77;;;9.70;;
73893;SDS011;62699;50.534;12.784;2022-10-13T04:12:38;15.85;;;9.50;;
73893;SDS011;62699;50.534;12.784;2022-10-13T04:17:52;14.40;;;8.95;;
73893;SDS011;62699;50.534;12.784;2022-10-13T04:22:52;16.90;;;9.45;;
73893;SDS011;62699;50.534;12.784;2022-10-13T04:27:57;15.27;;;9.75;;
73893;SDS011;62699;50.534;12.784;2022-10-13T04:33:07;16.10;;;9.80;;
73893;SDS011;62699;50.534;12.784;2022-10-13T04:38:08;17.70;;;9.02;;
73893;SDS011;62699;50.534;12.784;2022-10-13T04:48:42;18.92;;;10.18;;
73893;SDS011;62699;50.534;12.784;2022-10-13T04:53:59;17.25;;;10.60;;
73893;SDS011;62699;50.534;12.784;2022-10-13T04:59:01;18.05;;;10.93;;
73893;SDS011;62699;50.534;12.784;2022-10-13T05:04:05;21.33;;;12.38;;
73893;SDS011;62699;50.534;12.784;2022-10-13T05:09:05;21.63;;;12.85;;
73893;SDS011;62699;50.534;12.784;2022-10-13T05:14:06;25.20;;;12.35;;
73893;SDS011;62699;50.534;12.784;2022-10-13T05:19:06;23.52;;;12.23;;
73893;SDS011;62699;50.534;12.784;2022-10-13T05:24:07;17.77;;;11.57;;
73893;SDS011;62699;50.534;12.784;2022-10-13T05:29:12;21.98;;;12.80;;
73893;SDS011;62699;50.534;12.784;2022-10-13T05:34:12;29.27;;;17.83;;
73893;SDS011;62699;50.534;12.784;2022-10-13T05:39:13;22.55;;;13.75;;
73893;SDS011;62699;50.534;12.784;2022-10-13T05:44:13;24.20;;;14.02;;
73893;SDS011;62699;50.534;12.784;2022-10-13T05:49:16;24.30;;;14.98;;
73893;SDS011;62699;50.534;12.784;2022-10-13T06:00:03;24.15;;;15.77;;
73893;SDS011;62699;50.534;12.784;2022-10-13T06:05:07;25.30;;;16.13;;
73893;SDS011;62699;50.534;12.784;2022-10-13T06:10:16;24.13;;;15.00;;
73893;SDS011;62699;50.534;12.784;2022-10-13T06:15:17;23.10;;;13.90;;
73893;SDS011;62699;50.534;12.784;2022-10-13T06:20:18;23.08;;;12.98;;
73893;SDS011;62699;50.534;12.784;2022-10-13T06:25:19;22.60;;;13.23;;
73893;SDS011;62699;50.534;12.784;2022-10-13T06:30:19;21.52;;;12.00;;
73893;SDS011;62699;50.534;12.784;2022-10-13T06:35:23;18.55;;;11.73;;
73893;SDS011;62699;50.534;12.784;2022-10-13T06:40:23;17.65;;;10.90;;
73893;SDS011;62699;50.534;12.784;2022-10-13T06:45:24;18.77;;;10.57;;
73893;SDS011;62699;50.534;12.784;2022-10-13T06:50:24;16.02;;;8.95;;
73893;SDS011;62699;50.534;12.784;2022-10-13T06:55:25;14.90;;;8.75;;
73893;SDS011;62699;50.534;12.784;2022-10-13T07:00:25;18.38;;;9.88;;
73893;SDS011;62699;50.534;12.784;2022-10-13T07:05:26;13.60;;;8.82;;
73893;SDS011;62699;50.534;12.784;2022-10-13T07:10:26;19.23;;;9.50;;
73893;SDS011;62699;50.534;12.784;2022-10-13T07:15:26;37.10;;;11.73;;
73893;SDS011;62699;50.534;12.784;2022-10-13T07:20:27;48.03;;;14.98;;
73893;SDS011;62699;50.534;12.784;2022-10-13T07:25:28;43.80;;;13.50;;
73893;SDS011;62699;50.534;12.784;2022-10-13T07:30:28;16.92;;;9.90;;
73893;SDS011;62699;50.534;12.784;2022-10-13T07:35:29;22.55;;;11.88;;
73893;SDS011;62699;50.534;12.784;2022-10-13T07:40:29;22.40;;;11.70;;
73893;SDS011;62699;50.534;12.784;2022-10-13T07:45:30;23.02;;;11.20;;
73893;SDS011;62699;50.534;12.784;2022-10-13T07:50:30;20.58;;;11.45;;
73893;SDS011;62699;50.534;12.784;2022-10-13T07:55:31;19.02;;;11.00;;
73893;SDS011;62699;50.534;12.784;2022-10-13T08:00:31;17.50;;;9.75;;
73893;SDS011;62699;50.534;12.784;2022-10-13T08:05:31;17.27;;;10.40;;
73893;SDS011;62699;50.534;12.784;2022-10-13T08:10:32;16.90;;;10.75;;
73893;SDS011;62699;50.534;12.784;2022-10-13T08:15:32;17.42;;;9.80;;
73893;SDS011;62699;50.534;12.784;2022-10-13T08:20:32;19.05;;;11.27;;
73893;SDS011;62699;50.534;12.784;2022-10-13T08:25:37;18.58;;;10.80;;
73893;SDS011;62699;50.534;12.784;2022-10-13T08:30:39;18.10;;;10.15;;
73893;SDS011;62699;50.534;12.784;2022-10-13T08:35:40;17.38;;;10.68;;
73893;SDS011;62699;50.534;12.784;2022-10-13T08:40:45;22.67;;;11.10;;
73893;SDS011;62699;50.534;12.784;2022-10-13T08:45:47;17.92;;;10.45;;
73893;SDS011;62699;50.534;12.784;2022-10-13T08:50:50;15.45;;;8.68;;
73893;SDS011;62699;50.534;12.784;2022-10-13T08:55:55;18.75;;;9.80;;
73893;SDS011;62699;50.534;12.784;2022-10-13T09:06:21;18.02;;;9.65;;
73893;SDS011;62699;50.534;12.784;2022-10-13T09:11:28;20.17;;;10.37;;
73893;SDS011;62699;50.534;12.784;2022-10-13T09:16:34;20.50;;;11.27;;
73893;SDS011;62699;50.534;12.784;2022-10-13T09:21:37;17.92;;;9.88;;
73893;SDS011;62699;50.534;12.784;2022-10-13T09:26:37;20.90;;;10.40;;
73893;SDS011;62699;50.534;12.784;2022-10-13T09:31:39;23.73;;;11.73;;
73893;SDS011;62699;50.534;12.784;2022-10-13T09:36:53;17.58;;;10.75;;
73893;SDS011;62699;50.534;12.784;2022-10-13T09:47:18;25.35;;;12.07;;
73893;SDS011;62699;50.534;12.784;2022-10-13T09:52:24;23.65;;;12.13;;
73893;SDS011;62699;50.534;12.784;2022-10-13T09:57:44;22.42;;;12.75;;
73893;SDS011;62699;50.534;12.784;2022-10-13T10:08:57;26.30;;;12.27;;
73893;SDS011;62699;50.534;12.784;2022-10-13T10:19:20;23.50;;;12.48;;
73893;SDS011;62699;50.534;12.784;2022-10-13T10:24:30;24.58;;;12.65;;
73893;SDS011;62699;50.534;12.784;2022-10-13T10:29:58;20.88;;;11.98;;
73893;SDS011;62699;50.534;12.784;2022-10-13T10:35:11;22.10;;;12.40;;
73893;SDS011;62699;50.534;12.784;2022-10-13T10:40:20;19.65;;;10.55;;
73893;SDS011;62699;50.534;12.784;2022-10-13T10:45:41;21.75;;;10.88;;
73893;SDS011;62699;50.534;12.784;2022-10-13T10:50:46;18.65;;;10.68;;
73893;SDS011;62699;50.534;12.784;2022-10-13T11:01:30;22.25;;;11.18;;
73893;SDS011;62699;50.534;12.784;2022-10-13T11:06:37;21.58;;;11.23;;
73893;SDS011;62699;50.534;12.784;2022-10-13T11:11:41;21.98;;;11.40;;
73893;SDS011;62699;50.534;12.784;2022-10-13T11:27:43;21.17;;;10.70;;
73893;SDS011;62699;50.534;12.784;2022-10-13T11:48:33;15.00;;;8.95;;
73893;SDS011;62699;50.534;12.784;2022-10-13T11:53:54;19.63;;;8.68;;
73893;SDS011;62699;50.534;12.784;2022-10-13T11:58:57;19.08;;;9.27;;
73893;SDS011;62699;50.534;12.784;2022-10-13T12:03:57;15.82;;;8.80;;
73893;SDS011;62699;50.534;12.784;2022-10-13T12:09:02;17.55;;;8.68;;
73893;SDS011;62699;50.534;12.784;2022-10-13T12:19:18;15.43;;;7.88;;
73893;SDS011;62699;50.534;12.784;2022-10-13T12:24:23;16.45;;;8.73;;
73893;SDS011;62699;50.534;12.784;2022-10-13T12:29:26;17.60;;;8.73;;
73893;SDS011;62699;50.534;12.784;2022-10-13T12:34:28;18.77;;;8.63;;
73893;SDS011;62699;50.534;12.784;2022-10-13T12:39:35;12.95;;;7.38;;
73893;SDS011;62699;50.534;12.784;2022-10-13T12:44:37;16.20;;;7.40;;
73893;SDS011;62699;50.534;12.784;2022-10-13T12:49:38;14.15;;;6.90;;
73893;SDS011;62699;50.534;12.784;2022-10-13T12:54:54;15.55;;;8.18;;
73893;SDS011;62699;50.534;12.784;2022-10-13T12:59:55;14.70;;;7.95;;
73893;SDS011;62699;50.534;12.784;2022-10-13T13:04:55;14.07;;;7.15;;
73893;SDS011;62699;50.534;12.784;2022-10-13T13:20:28;18.92;;;8.52;;
73893;SDS011;62699;50.534;12.784;2022-10-13T13:25:30;16.92;;;8.00;;
73893;SDS011;62699;50.534;12.784;2022-10-13T13:30:31;14.80;;;8.85;;
73893;SDS011;62699;50.534;12.784;2022-10-13T13:35:31;14.40;;;8.07;;
73893;SDS011;62699;50.534;12.784;2022-10-13T13:40:32;16.23;;;7.90;;
73893;SDS011;62699;50.534;12.784;2022-10-13T13:45:33;23.48;;;13.50;;
73893;SDS011;62699;50.534;12.784;2022-10-13T13:50:34;27.73;;;14.25;;
73893;SDS011;62699;50.534;12.784;2022-10-13T13:55:36;15.48;;;9.48;;
73893;SDS011;62699;50.534;12.784;2022-10-13T14:00:36;22.58;;;11.55;;
73893;SDS011;62699;50.534;12.784;2022-10-13T14:05:37;18.02;;;9.02;;
73893;SDS011;62699;50.534;12.784;2022-10-13T14:10:39;15.73;;;8.50;;
73893;SDS011;62699;50.534;12.784;2022-10-13T14:15:40;14.30;;;9.23;;
73893;SDS011;62699;50.534;12.784;2022-10-13T14:20:40;18.13;;;8.88;;
73893;SDS011;62699;50.534;12.784;2022-10-13T14:25:41;22.95;;;11.23;;
73893;SDS011;62699;50.534;12.784;2022-10-13T14:30:41;19.90;;;10.45;;
73893;SDS011;62699;50.534;12.784;2022-10-13T14:35:42;23.90;;;10.50;;
73893;SDS011;62699;50.534;12.784;2022-10-13T14:40:42;24.25;;;13.02;;
73893;SDS011;62699;50.534;12.784;2022-10-13T14:45:43;18.02;;;10.23;;
73893;SDS011;62699;50.534;12.784;2022-10-13T14:50:43;21.23;;;11.60;;
73893;SDS011;62699;50.534;12.784;2022-10-13T14:55:43;24.65;;;11.98;;
73893;SDS011;62699;50.534;12.784;2022-10-13T15:00:44;33.25;;;13.88;;
73893;SDS011;62699;50.534;12.784;2022-10-13T15:05:44;37.00;;;17.42;;
73893;SDS011;62699;50.534;12.784;2022-10-13T15:10:45;33.28;;;18.38;;
73893;SDS011;62699;50.534;12.784;2022-10-13T15:15:45;25.95;;;13.50;;
73893;SDS011;62699;50.534;12.784;2022-10-13T15:20:46;21.92;;;10.70;;
73893;SDS011;62699;50.534;12.784;2022-10-13T15:25:54;33.45;;;16.35;;
73893;SDS011;62699;50.534;12.784;2022-10-13T15:30:56;28.23;;;14.45;;
73893;SDS011;62699;50.534;12.784;2022-10-13T15:35:57;22.42;;;10.50;;
73893;SDS011;62699;50.534;12.784;2022-10-13T15:41:01;16.98;;;9.60;;
73893;SDS011;62699;50.534;12.784;2022-10-13T15:46:07;16.27;;;9.18;;
73893;SDS011;62699;50.534;12.784;2022-10-13T15:51:14;16.23;;;8.65;;
73893;SDS011;62699;50.534;12.784;2022-10-13T15:56:16;16.27;;;10.40;;
73893;SDS011;62699;50.534;12.784;2022-10-13T16:01:17;15.43;;;8.98;;
73893;SDS011;62699;50.534;12.784;2022-10-13T16:11:38;15.68;;;8.75;;
73893;SDS011;62699;50.534;12.784;2022-10-13T16:16:38;16.40;;;9.40;;
73893;SDS011;62699;50.534;12.784;2022-10-13T16:21:39;15.60;;;8.68;;
73893;SDS011;62699;50.534;12.784;2022-10-13T16:26:42;13.82;;;8.02;;
73893;SDS011;62699;50.534;12.784;2022-10-13T16:31:43;17.30;;;10.45;;
73893;SDS011;62699;50.534;12.784;2022-10-13T16:36:44;13.85;;;8.82;;
73893;SDS011;62699;50.534;12.784;2022-10-13T16:41:44;16.58;;;9.82;;
73893;SDS011;62699;50.534;12.784;2022-10-13T16:46:45;13.40;;;8.68;;
73893;SDS011;62699;50.534;12.784;2022-10-13T16:51:48;15.60;;;9.27;;
73893;SDS011;62699;50.534;12.784;2022-10-13T16:56:48;16.00;;;9.73;;
73893;SDS011;62699;50.534;12.784;2022-10-13T17:18:19;23.00;;;16.40;;
73893;SDS011;62699;50.534;12.784;2022-10-13T17:23:20;25.90;;;14.73;;
73893;SDS011;62699;50.534;12.784;2022-10-13T17:28:22;26.10;;;15.23;;
73893;SDS011;62699;50.534;12.784;2022-10-13T17:39:14;26.08;;;16.60;;
73893;SDS011;62699;50.534;12.784;2022-10-13T17:44:16;35.60;;;21.98;;
73893;SDS011;62699;50.534;12.784;2022-10-13T17:49:37;42.45;;;25.42;;
73893;SDS011;62699;50.534;12.784;2022-10-13T17:54:37;25.05;;;15.75;;
73893;SDS011;62699;50.534;12.784;2022-10-13T17:59:39;21.15;;;13.18;;
73893;SDS011;62699;50.534;12.784;2022-10-13T18:04:51;19.20;;;12.43;;
73893;SDS011;62699;50.534;12.784;2022-10-13T18:09:52;17.20;;;12.48;;
73893;SDS011;62699;50.534;12.784;2022-10-13T18:14:52;19.48;;;12.05;;
73893;SDS011;62699;50.534;12.784;2022-10-13T18:20:11;19.20;;;12.57;;
73893;SDS011;62699;50.534;12.784;2022-10-13T18:30:12;18.70;;;11.82;;
73893;SDS011;62699;50.534;12.784;2022-10-13T18:35:12;19.55;;;12.45;;
73893;SDS011;62699;50.534;12.784;2022-10-13T18:40:15;22.40;;;14.00;;
73893;SDS011;62699;50.534;12.784;2022-10-13T18:45:17;23.23;;;13.95;;
73893;SDS011;62699;50.534;12.784;2022-10-13T18:50:18;23.02;;;15.27;;
73893;SDS011;62699;50.534;12.784;2022-10-13T18:55:19;23.98;;;14.55;;
73893;SDS011;62699;50.534;12.784;2022-10-13T19:00:20;22.50;;;15.65;;
73893;SDS011;62699;50.534;12.784;2022-10-13T19:05:22;25.02;;;15.80;;
73893;SDS011;62699;50.534;12.784;2022-10-13T19:10:22;28.63;;;18.98;;
73893;SDS011;62699;50.534;12.784;2022-10-13T19:15:23;32.75;;;20.05;;
73893;SDS011;62699;50.534;12.784;2022-10-13T19:20:24;28.50;;;19.80;;
73893;SDS011;62699;50.534;12.784;2022-10-13T19:25:31;25.33;;;17.25;;
73893;SDS011;62699;50.534;12.784;2022-10-13T19:30:32;26.88;;;16.45;;
73893;SDS011;62699;50.534;12.784;2022-10-13T19:35:39;25.05;;;15.90;;
73893;SDS011;62699;50.534;12.784;2022-10-13T19:40:46;24.98;;;15.75;;
73893;SDS011;62699;50.534;12.784;2022-10-13T19:45:52;25.50;;;16.30;;
73893;SDS011;62699;50.534;12.784;2022-10-13T19:50:55;30.50;;;18.55;;
73893;SDS011;62699;50.534;12.784;2022-10-13T19:55:55;38.20;;;24.42;;
73893;SDS011;62699;50.534;12.784;2022-10-13T20:01:00;30.67;;;21.05;;
73893;SDS011;62699;50.534;12.784;2022-10-13T20:06:03;32.13;;;20.75;;
73893;SDS011;62699;50.534;12.784;2022-10-13T20:11:08;30.13;;;21.08;;
73893;SDS011;62699;50.534;12.784;2022-10-13T20:16:16;47.17;;;27.13;;
73893;SDS011;62699;50.534;12.784;2022-10-13T20:21:18;28.17;;;17.23;;
73893;SDS011;62699;50.534;12.784;2022-10-13T20:37:16;31.08;;;18.17;;
73893;SDS011;62699;50.534;12.784;2022-10-13T20:42:16;26.48;;;18.95;;
73893;SDS011;62699;50.534;12.784;2022-10-13T20:47:34;23.95;;;17.08;;
73893;SDS011;62699;50.534;12.784;2022-10-13T20:52:34;34.60;;;22.98;;
73893;SDS011;62699;50.534;12.784;2022-10-13T20:57:37;27.70;;;18.65;;
73893;SDS011;62699;50.534;12.784;2022-10-13T21:02:37;23.20;;;16.88;;
73893;SDS011;62699;50.534;12.784;2022-10-13T21:07:39;21.40;;;15.38;;
73893;SDS011;62699;50.534;12.784;2022-10-13T21:12:50;19.95;;;13.55;;
73893;SDS011;62699;50.534;12.784;2022-10-13T21:17:51;26.60;;;15.85;;
73893;SDS011;62699;50.534;12.784;2022-10-13T21:22:51;21.15;;;14.35;;
73893;SDS011;62699;50.534;12.784;2022-10-13T21:27:52;21.38;;;14.18;;
73893;SDS011;62699;50.534;12.784;2022-10-13T21:32:52;19.30;;;13.05;;
73893;SDS011;62699;50.534;12.784;2022-10-13T21:37:53;20.80;;;12.15;;
73893;SDS011;62699;50.534;12.784;2022-10-13T21:42:54;19.00;;;12.18;;
73893;SDS011;62699;50.534;12.784;2022-10-13T21:47:54;17.20;;;10.85;;
73893;SDS011;62699;50.534;12.784;2022-10-13T21:52:55;19.35;;;11.43;;
73893;SDS011;62699;50.534;12.784;2022-10-13T21:57:55;18.50;;;11.00;;
73893;SDS011;62699;50.534;12.784;2022-10-13T22:02:56;17.45;;;10.38;;
73893;SDS011;62699;50.534;12.784;2022-10-13T22:07:56;16.63;;;10.18;;
73893;SDS011;62699;50.534;12.784;2022-10-13T22:12:57;21.27;;;11.20;;
73893;SDS011;62699;50.534;12.784;2022-10-13T22:17:57;18.73;;;11.18;;
73893;SDS011;62699;50.534;12.784;2022-10-13T22:22:58;19.85;;;11.52;;
73893;SDS011;62699;50.534;12.784;2022-10-13T22:27:59;19.35;;;11.82;;
73893;SDS011;62699;50.534;12.784;2022-10-13T22:33:00;21.38;;;12.38;;
73893;SDS011;62699;50.534;12.784;2022-10-13T22:38:00;21.90;;;12.52;;
73893;SDS011;62699;50.534;12.784;2022-10-13T22:43:00;22.65;;;12.15;;
73893;SDS011;62699;50.534;12.784;2022-10-13T22:48:01;20.70;;;12.82;;
73893;SDS011;62699;50.534;12.784;2022-10-13T22:53:02;20.33;;;11.32;;
73893;SDS011;62699;50.534;12.784;2022-10-13T22:58:02;20.48;;;12.25;;
73893;SDS011;62699;50.534;12.784;2022-10-13T23:03:03;19.70;;;11.90;;
73893;SDS011;62699;50.534;12.784;2022-10-13T23:08:04;18.35;;;11.52;;
73893;SDS011;62699;50.534;12.784;2022-10-13T23:13:05;19.60;;;11.10;;
73893;SDS011;62699;50.534;12.784;2022-10-13T23:18:05;18.95;;;11.70;;
73893;SDS011;62699;50.534;12.784;2022-10-13T23:23:06;22.30;;;11.52;;
73893;SDS011;62699;50.534;12.784;2022-10-13T23:28:16;20.40;;;11.98;;
73893;SDS011;62699;50.534;12.784;2022-10-13T23:33:16;20.15;;;12.85;;
73893;SDS011;62699;50.534;12.784;2022-10-13T23:38:17;16.73;;;10.43;;
73893;SDS011;62699;50.534;12.784;2022-10-13T23:43:17;21.38;;;11.18;;
73893;SDS011;62699;50.534;12.784;2022-10-13T23:48:18;21.17;;;11.02;;
73893;SDS011;62699;50.534;12.784;2022-10-13T23:53:18;18.60;;;11.30;;
73893;SDS011;62699;50.534;12.784;2022-10-13T23:58:19;19.58;;;11.50;;
